createdAt,value
2023-04-19T00:00:44.261Z,3.21
2023-04-19T00:03:11.585Z,3.15
2023-04-19T00:05:41.596Z,3.11
2023-04-19T00:08:08.393Z,3.15
2023-04-19T00:10:39.815Z,3.19
2023-04-19T00:13:06.714Z,3.13
2023-04-19T00:15:35.044Z,3.16
2023-04-19T00:18:01.600Z,3.09
2023-04-19T00:20:28.138Z,3.07
2023-04-19T00:22:54.784Z,3.08
2023-04-19T00:25:21.219Z,3.04
2023-04-19T00:27:47.826Z,3.09
2023-04-19T00:30:14.579Z,3.05
2023-04-19T00:32:41.118Z,3.07
2023-04-19T00:35:07.933Z,3.00
2023-04-19T00:37:34.402Z,2.99
2023-04-19T00:40:00.844Z,2.84
2023-04-19T00:42:27.330Z,2.83
2023-04-19T00:44:53.889Z,2.96
2023-04-19T00:47:20.543Z,2.94
2023-04-19T00:49:47.158Z,2.90
2023-04-19T00:52:14.205Z,2.97
2023-04-19T00:54:43.520Z,2.89
2023-04-19T00:57:10.054Z,2.87
2023-04-19T00:59:36.887Z,2.81
2023-04-19T01:02:03.546Z,2.77
2023-04-19T01:04:30.298Z,2.72
2023-04-19T01:07:25.174Z,2.82
2023-04-19T01:09:51.624Z,2.75
2023-04-19T01:12:18.159Z,2.71
2023-04-19T01:14:44.833Z,2.78
2023-04-19T01:17:13.687Z,2.73
2023-04-19T01:19:40.180Z,2.69
2023-04-19T01:22:07.139Z,2.67
2023-04-19T01:24:34.413Z,2.65
2023-04-19T01:27:02.216Z,2.66
2023-04-19T01:29:28.793Z,2.58
2023-04-19T01:31:55.220Z,2.57
2023-04-19T01:34:23.220Z,2.51
2023-04-19T01:36:49.944Z,2.33
2023-04-19T01:39:16.673Z,2.39
2023-04-19T01:41:43.140Z,2.38
2023-04-19T01:44:09.708Z,2.25
2023-04-19T01:46:38.790Z,2.35
2023-04-19T01:49:05.401Z,2.40
2023-04-19T01:51:31.854Z,2.31
2023-04-19T01:53:58.482Z,2.28
2023-04-19T01:56:25.143Z,2.23
2023-04-19T01:58:51.625Z,2.28
2023-04-19T02:01:18.147Z,2.24
2023-04-19T02:03:44.840Z,2.25
2023-04-19T02:06:12.684Z,2.19
2023-04-19T02:08:39.984Z,2.10
2023-04-19T02:11:11.402Z,2.13
2023-04-19T02:13:37.898Z,1.99
2023-04-19T02:16:05.961Z,2.03
2023-04-19T02:18:33.371Z,2.01
2023-04-19T02:20:59.823Z,1.91
2023-04-19T02:23:26.267Z,1.92
2023-04-19T02:25:53.441Z,1.93
2023-04-19T02:28:19.941Z,1.79
2023-04-19T02:30:46.848Z,1.77
2023-04-19T02:33:13.401Z,1.88
2023-04-19T02:35:39.850Z,1.91
2023-04-19T02:38:06.424Z,1.81
2023-04-19T02:40:33.048Z,1.83
2023-04-19T02:42:59.553Z,1.82
2023-04-19T02:45:26.058Z,1.83
2023-04-19T02:47:52.685Z,1.84
2023-04-19T02:50:19.216Z,1.80
2023-04-19T02:52:45.964Z,1.86
2023-04-19T02:55:12.546Z,1.82
2023-04-19T02:57:39.146Z,1.76
2023-04-19T03:00:06.442Z,1.69
2023-04-19T03:02:33.058Z,1.76
2023-04-19T03:04:59.627Z,1.76
2023-04-19T03:07:26.192Z,1.76
2023-04-19T03:09:52.682Z,1.72
2023-04-19T03:12:19.213Z,1.75
2023-04-19T03:14:45.630Z,1.74
2023-04-19T03:17:12.081Z,1.68
2023-04-19T03:19:38.707Z,1.67
2023-04-19T03:22:05.274Z,1.62
2023-04-19T03:24:31.896Z,1.61
2023-04-19T03:26:58.380Z,1.62
2023-04-19T03:29:24.989Z,1.48
2023-04-19T03:31:51.421Z,1.56
2023-04-19T03:34:18.152Z,1.48
2023-04-19T03:36:44.702Z,1.48
2023-04-19T03:39:11.272Z,1.44
2023-04-19T03:41:37.736Z,1.44
2023-04-19T03:44:04.366Z,1.45
2023-04-19T03:46:31.697Z,1.47
2023-04-19T03:48:58.905Z,1.39
2023-04-19T03:51:25.458Z,1.43
2023-04-19T03:53:51.878Z,1.44
2023-04-19T03:56:18.380Z,1.42
2023-04-19T03:58:44.807Z,1.37
2023-04-19T04:01:21.468Z,1.31
2023-04-19T04:03:48.490Z,1.35
2023-04-19T04:06:15.700Z,1.30
2023-04-19T04:08:42.167Z,1.30
2023-04-19T04:11:08.670Z,1.35
2023-04-19T04:13:35.197Z,1.32
2023-04-19T04:16:01.901Z,1.31
2023-04-19T04:18:28.622Z,1.31
2023-04-19T04:20:55.548Z,1.25
2023-04-19T04:23:22.114Z,1.23
2023-04-19T04:25:57.972Z,1.25
2023-04-19T04:28:24.503Z,1.19
2023-04-19T04:30:51.861Z,1.19
2023-04-19T04:33:18.458Z,1.13
2023-04-19T04:35:44.922Z,1.22
2023-04-19T04:38:23.530Z,1.12
2023-04-19T04:40:53.650Z,1.20
2023-04-19T04:43:21.827Z,1.21
2023-04-19T04:45:48.478Z,1.22
2023-04-19T04:48:15.280Z,1.25
2023-04-19T04:50:42.164Z,1.29
2023-04-19T04:53:08.924Z,1.32
2023-04-19T04:55:36.472Z,1.34
2023-04-19T04:58:05.182Z,1.41
2023-04-19T05:00:32.224Z,1.54
2023-04-19T05:02:59.312Z,1.60
2023-04-19T05:05:26.226Z,1.71
2023-04-19T05:07:52.663Z,1.92
2023-04-19T05:10:19.139Z,2.00
2023-04-19T05:12:45.672Z,2.07
2023-04-19T05:15:12.150Z,2.14
2023-04-19T05:17:38.743Z,2.09
2023-04-19T05:20:06.037Z,2.20
2023-04-19T05:22:32.491Z,2.30
2023-04-19T05:24:58.987Z,2.37
2023-04-19T05:27:25.796Z,2.39
2023-04-19T05:29:52.769Z,2.43
2023-04-19T05:32:19.531Z,2.50
2023-04-19T05:34:46.141Z,2.60
2023-04-19T05:37:12.642Z,2.58
2023-04-19T05:39:39.083Z,2.55
2023-04-19T05:42:05.565Z,2.68
2023-04-19T05:44:32.006Z,2.93
2023-04-19T05:46:58.477Z,2.91
2023-04-19T05:49:24.923Z,2.81
2023-04-19T05:51:51.684Z,3.15
2023-04-19T05:54:18.394Z,3.23
2023-04-19T05:56:45.323Z,3.29
2023-04-19T05:59:11.780Z,3.36
2023-04-19T06:01:38.297Z,3.45
2023-04-19T06:04:05.043Z,3.54
2023-04-19T06:06:31.756Z,3.53
2023-04-19T06:08:58.254Z,3.80
2023-04-19T06:11:34.847Z,3.73
2023-04-19T06:14:06.193Z,3.98
2023-04-19T06:16:32.820Z,4.19
2023-04-19T06:18:59.429Z,4.07
2023-04-19T06:21:26.942Z,4.09
2023-04-19T06:23:53.414Z,4.27
2023-04-19T06:26:20.050Z,4.45
2023-04-19T06:28:46.490Z,4.48
2023-04-19T06:31:13.011Z,4.55
2023-04-19T06:33:39.588Z,4.41
2023-04-19T06:36:06.254Z,5.03
2023-04-19T06:38:32.806Z,4.98
2023-04-19T06:40:59.222Z,5.14
2023-04-19T06:43:25.800Z,5.23
2023-04-19T06:46:02.894Z,5.48
2023-04-19T06:48:29.414Z,5.77
2023-04-19T06:50:55.958Z,5.92
2023-04-19T06:53:22.786Z,6.02
2023-04-19T06:55:49.515Z,6.14
2023-04-19T06:58:15.985Z,6.43
2023-04-19T07:00:42.542Z,6.54
2023-04-19T07:03:09.209Z,6.69
2023-04-19T07:05:36.419Z,6.89
2023-04-19T07:08:03.196Z,7.00
2023-04-19T07:10:29.741Z,7.10
2023-04-19T07:12:56.330Z,7.18
2023-04-19T07:15:22.869Z,7.51
2023-04-19T07:17:49.351Z,7.68
2023-04-19T07:20:16.043Z,7.46
2023-04-19T07:22:42.615Z,8.14
2023-04-19T07:25:09.516Z,8.49
2023-04-19T07:27:35.991Z,8.46
2023-04-19T07:30:02.882Z,8.29
2023-04-19T07:32:31.342Z,8.60
2023-04-19T07:34:57.829Z,8.17
2023-04-19T07:37:24.305Z,8.60
2023-04-19T07:39:50.982Z,8.58
2023-04-19T07:42:17.526Z,9.03
2023-04-19T07:44:44.025Z,9.01
2023-04-19T07:47:10.830Z,9.06
2023-04-19T07:49:37.718Z,9.47
2023-04-19T07:52:07.748Z,9.01
2023-04-19T07:54:34.549Z,9.56
2023-04-19T07:57:01.035Z,9.39
2023-04-19T07:59:27.680Z,9.70
2023-04-19T08:01:54.185Z,9.90
2023-04-19T08:04:23.239Z,9.97
2023-04-19T08:06:50.202Z,10.35
2023-04-19T08:09:16.797Z,10.15
2023-04-19T08:11:43.348Z,10.28
2023-04-19T08:14:21.800Z,10.10
2023-04-19T08:17:22.062Z,10.71
2023-04-19T08:19:42.956Z,10.82
2023-04-19T08:22:09.562Z,10.79
2023-04-19T08:24:36.101Z,10.57
2023-04-19T08:27:02.670Z,10.28
2023-04-19T08:29:29.164Z,10.02
2023-04-19T08:31:55.697Z,10.02
2023-04-19T08:34:22.368Z,10.23
2023-04-19T08:36:56.215Z,10.52
2023-04-19T08:39:33.589Z,10.81
2023-04-19T08:42:12.598Z,10.62
2023-04-19T08:45:02.181Z,10.88
2023-04-19T08:47:34.211Z,10.12
2023-04-19T08:50:17.481Z,9.52
2023-04-19T08:52:58.519Z,9.11
2023-04-19T08:55:28.110Z,9.31
2023-04-19T08:57:54.650Z,10.19
2023-04-19T09:00:21.660Z,10.52
2023-04-19T09:02:53.276Z,10.52
2023-04-19T09:05:20.400Z,10.34
2023-04-19T09:07:47.541Z,11.23
2023-04-19T09:10:19.451Z,11.51
2023-04-19T09:13:03.147Z,10.44
2023-04-19T09:15:41.977Z,9.71
2023-04-19T09:18:12.287Z,10.53
2023-04-19T09:20:40.729Z,11.39
2023-04-19T09:23:09.589Z,11.38
2023-04-19T09:25:55.445Z,11.93
2023-04-19T09:28:23.915Z,12.55
2023-04-19T09:31:00.625Z,11.60
2023-04-19T09:33:39.862Z,10.77
2023-04-19T09:36:07.826Z,9.84
2023-04-19T09:38:48.257Z,9.44
2023-04-19T09:41:14.908Z,9.00
2023-04-19T09:46:38.158Z,8.69
2023-04-19T09:49:22.984Z,9.63
2023-04-19T09:51:56.305Z,10.80
2023-04-19T09:54:24.636Z,11.56
2023-04-19T09:56:54.062Z,11.85
2023-04-19T09:59:23.284Z,11.08
2023-04-19T10:01:56.221Z,11.49
2023-04-19T10:04:37.747Z,10.55
2023-04-19T10:07:29.033Z,10.63
2023-04-19T10:10:02.350Z,11.92
2023-04-19T10:12:54.879Z,12.37
2023-04-19T10:15:23.729Z,13.09
2023-04-19T10:17:50.984Z,12.63
2023-04-19T10:20:22.982Z,12.41
2023-04-19T10:22:49.973Z,11.33
2023-04-19T10:25:16.993Z,11.28
2023-04-19T10:27:49.058Z,12.04
2023-04-19T10:30:21.051Z,12.03
2023-04-19T10:32:54.169Z,12.65
2023-04-19T10:35:22.028Z,12.20
2023-04-19T10:38:10.166Z,10.85
2023-04-19T10:41:04.452Z,9.31
2023-04-19T10:43:35.360Z,9.26
2023-04-19T10:46:08.852Z,9.33
2023-04-19T10:48:40.717Z,9.26
2023-04-19T10:51:15.693Z,9.26
2023-04-19T10:53:50.868Z,10.39
2023-04-19T10:56:59.874Z,10.06
2023-04-19T10:59:27.657Z,9.92
2023-04-19T11:01:56.827Z,9.34
2023-04-19T11:04:43.581Z,9.41
2023-04-19T11:07:10.102Z,9.28
2023-04-19T11:09:39.564Z,9.28
2023-04-19T11:12:08.484Z,8.95
2023-04-19T11:14:41.884Z,9.51
2023-04-19T11:17:39.560Z,10.02
2023-04-19T11:20:10.201Z,9.40
2023-04-19T11:22:40.731Z,9.32
2023-04-19T11:25:10.494Z,9.31
2023-04-19T11:27:38.236Z,9.86
2023-04-19T11:30:07.046Z,9.53
2023-04-19T11:32:34.201Z,9.28
2023-04-19T11:35:08.842Z,9.03
2023-04-19T11:37:36.654Z,8.81
2023-04-19T11:40:05.630Z,8.83
2023-04-19T11:42:33.063Z,8.92
2023-04-19T11:44:59.949Z,8.59
2023-04-19T11:47:27.206Z,8.87
2023-04-19T11:49:56.468Z,10.87
2023-04-19T11:52:26.309Z,11.02
2023-04-19T11:54:53.539Z,10.49
2023-04-19T11:57:30.704Z,10.17
2023-04-19T12:00:11.725Z,9.46
2023-04-19T12:02:40.186Z,9.20
2023-04-19T12:05:11.726Z,8.88
2023-04-19T12:07:56.965Z,9.06
2023-04-19T12:10:23.517Z,9.10
2023-04-19T12:12:49.974Z,9.16
2023-04-19T12:15:16.718Z,9.14
2023-04-19T12:18:02.739Z,8.98
2023-04-19T12:20:34.515Z,9.04
2023-04-19T12:23:01.006Z,9.15
2023-04-19T12:25:32.250Z,9.19
2023-04-19T12:28:00.611Z,8.89
2023-04-19T12:30:27.335Z,8.70
2023-04-19T12:32:55.643Z,8.44
2023-04-19T12:35:24.357Z,8.56
2023-04-19T12:37:51.889Z,8.55
2023-04-19T12:40:18.316Z,8.61
2023-04-19T12:42:44.853Z,8.54
2023-04-19T12:45:13.265Z,8.66
2023-04-19T12:47:41.096Z,8.68
2023-04-19T12:50:08.944Z,8.96
2023-04-19T12:52:35.541Z,9.00
2023-04-19T12:55:02.726Z,9.07
2023-04-19T12:57:30.139Z,9.28
2023-04-19T12:59:56.612Z,9.23
2023-04-19T13:02:23.189Z,9.07
2023-04-19T13:04:49.998Z,9.16
2023-04-19T13:07:16.605Z,9.34
2023-04-19T13:09:43.275Z,9.46
2023-04-19T13:12:09.798Z,9.46
2023-04-19T13:14:36.337Z,9.52
2023-04-19T13:17:02.846Z,9.57
2023-04-19T13:19:29.272Z,9.70
2023-04-19T13:21:55.750Z,9.72
2023-04-19T13:24:22.244Z,9.91
2023-04-19T13:26:48.712Z,9.86
2023-04-19T13:29:15.178Z,9.92
2023-04-19T13:31:43.616Z,9.95
2023-04-19T13:34:10.489Z,9.79
2023-04-19T13:36:37.686Z,9.27
2023-04-19T13:39:05.286Z,8.97
2023-04-19T13:41:32.923Z,8.86
2023-04-19T13:43:59.364Z,8.93
2023-04-19T13:46:25.858Z,8.98
2023-04-19T13:48:52.358Z,8.85
2023-04-19T13:51:19.121Z,8.82
2023-04-19T13:53:45.612Z,8.75
2023-04-19T13:56:12.115Z,8.40
2023-04-19T13:58:38.765Z,8.18
2023-04-19T14:01:05.390Z,8.21
2023-04-19T14:03:32.077Z,8.23
2023-04-19T14:05:58.826Z,8.28
2023-04-19T14:08:25.669Z,8.20
2023-04-19T14:10:52.165Z,8.02
2023-04-19T14:13:18.750Z,7.18
2023-04-19T14:15:45.271Z,7.08
2023-04-19T14:18:11.768Z,7.14
2023-04-19T14:20:38.274Z,7.24
2023-04-19T14:23:04.795Z,7.22
2023-04-19T14:25:31.321Z,7.29
2023-04-19T14:27:59.417Z,7.40
2023-04-19T14:30:26.279Z,7.52
2023-04-19T14:32:53.098Z,7.55
2023-04-19T14:35:20.072Z,7.54
2023-04-19T14:37:46.746Z,7.54
2023-04-19T14:40:13.335Z,7.54
2023-04-19T14:42:39.963Z,7.70
2023-04-19T14:45:07.157Z,7.73
2023-04-19T14:47:34.358Z,7.86
2023-04-19T14:50:00.862Z,7.89
2023-04-19T14:52:27.537Z,7.86
2023-04-19T14:54:54.184Z,7.73
2023-04-19T14:57:20.780Z,7.81
2023-04-19T14:59:47.197Z,7.82
2023-04-19T15:02:13.980Z,7.80
2023-04-19T15:04:41.495Z,7.45
2023-04-19T15:07:08.543Z,7.21
2023-04-19T15:09:35.066Z,7.08
2023-04-19T15:12:01.816Z,6.99
2023-04-19T15:14:28.587Z,6.93
2023-04-19T15:16:55.087Z,6.76
2023-04-19T15:19:21.670Z,6.29
2023-04-19T15:21:48.103Z,6.25
2023-04-19T15:24:14.548Z,6.19
2023-04-19T15:26:43.558Z,5.91
2023-04-19T15:29:10.785Z,5.42
2023-04-19T15:31:37.425Z,5.12
2023-04-19T15:34:04.151Z,4.77
2023-04-19T15:36:31.104Z,4.45
2023-04-19T15:39:00.579Z,4.04
2023-04-19T15:41:27.121Z,3.82
2023-04-19T15:43:53.546Z,3.54
2023-04-19T15:46:20.280Z,3.65
2023-04-19T15:48:48.458Z,3.54
2023-04-19T15:51:15.432Z,3.49
2023-04-19T15:53:42.078Z,3.23
2023-04-19T15:56:08.678Z,3.17
2023-04-19T15:58:35.101Z,3.26
2023-04-19T16:01:01.663Z,3.43
2023-04-19T16:03:28.784Z,3.21
2023-04-19T16:05:55.625Z,3.23
2023-04-19T16:08:22.160Z,3.31
2023-04-19T16:10:49.411Z,3.35
2023-04-19T16:13:16.884Z,3.24
2023-04-19T16:15:44.282Z,3.00
2023-04-19T16:18:12.132Z,2.87
2023-04-19T16:20:39.948Z,2.78
2023-04-19T16:23:06.555Z,2.96
2023-04-19T16:25:33.509Z,2.97
2023-04-19T16:28:00.339Z,3.08
2023-04-19T16:30:26.908Z,3.21
2023-04-19T16:32:57.876Z,3.21
2023-04-19T16:35:25.475Z,3.11
2023-04-19T16:37:54.598Z,3.20
2023-04-19T16:40:22.840Z,3.20
2023-04-19T16:42:49.336Z,3.25
2023-04-19T16:45:17.612Z,3.20
2023-04-19T16:47:46.075Z,3.36
2023-04-19T16:50:14.255Z,3.28
2023-04-19T16:52:41.063Z,3.32
2023-04-19T16:55:08.131Z,3.36
2023-04-19T16:57:34.740Z,3.41
2023-04-19T17:00:01.277Z,3.33
2023-04-19T17:02:28.062Z,3.36
2023-04-19T17:04:56.175Z,3.38
2023-04-19T17:07:22.810Z,3.22
2023-04-19T17:09:49.354Z,3.37
2023-04-19T17:12:15.774Z,3.27
2023-04-19T17:14:42.270Z,3.41
2023-04-19T17:17:08.723Z,3.35
2023-04-19T17:19:36.296Z,3.22
2023-04-19T17:22:05.447Z,3.31
2023-04-19T17:24:32.995Z,3.37
2023-04-19T17:27:00.255Z,3.34
2023-04-19T17:29:27.465Z,3.33
2023-04-19T17:31:54.228Z,3.09
2023-04-19T17:34:20.824Z,3.14
2023-04-19T17:36:47.323Z,2.68
2023-04-19T17:39:14.202Z,2.42
2023-04-19T17:41:41.437Z,2.33
2023-04-19T17:44:07.966Z,2.26
2023-04-19T17:46:34.477Z,2.36
2023-04-19T17:49:01.273Z,2.53
2023-04-19T17:51:27.836Z,2.40
2023-04-19T17:53:54.569Z,2.28
2023-04-19T17:56:21.339Z,2.03
2023-04-19T17:58:47.795Z,2.03
2023-04-19T18:01:16.148Z,2.07
2023-04-19T18:03:42.902Z,2.21
2023-04-19T18:06:10.606Z,2.07
2023-04-19T18:08:37.060Z,1.87
2023-04-19T18:11:03.596Z,1.80
2023-04-19T18:13:30.061Z,1.78
2023-04-19T18:15:56.563Z,1.62
2023-04-19T18:18:23.322Z,1.83
2023-04-19T18:20:50.348Z,1.88
2023-04-19T18:23:16.791Z,1.98
2023-04-19T18:25:43.271Z,1.94
2023-04-19T18:28:09.784Z,1.83
2023-04-19T18:30:36.248Z,1.87
2023-04-19T18:33:02.782Z,1.86
2023-04-19T18:35:29.784Z,1.96
2023-04-19T18:37:56.336Z,2.07
2023-04-19T18:40:22.869Z,2.13
2023-04-19T18:42:49.338Z,2.19
2023-04-19T18:45:15.891Z,2.16
2023-04-19T18:47:42.492Z,2.06
2023-04-19T18:50:09.554Z,2.07
2023-04-19T18:52:36.794Z,2.14
2023-04-19T18:55:04.749Z,2.16
2023-04-19T18:57:34.487Z,2.26
2023-04-19T19:00:02.457Z,2.22
2023-04-19T19:02:29.222Z,2.04
2023-04-19T19:04:58.261Z,2.23
2023-04-19T19:07:36.425Z,2.16
2023-04-19T19:10:16.945Z,2.26
2023-04-19T19:12:45.806Z,2.23
2023-04-19T19:15:13.171Z,2.23
2023-04-19T19:17:39.771Z,2.30
2023-04-19T19:20:07.157Z,2.34
2023-04-19T19:22:34.113Z,2.36
2023-04-19T19:25:01.407Z,2.31
2023-04-19T19:27:28.229Z,2.34
2023-04-19T19:29:55.295Z,2.23
2023-04-19T19:32:22.020Z,2.27
2023-04-19T19:37:19.105Z,2.37
2023-04-19T19:39:46.482Z,2.40
2023-04-19T19:42:16.203Z,2.42
2023-04-19T19:44:42.952Z,2.51
2023-04-19T19:47:10.756Z,2.53
2023-04-19T19:52:07.209Z,2.67
2023-04-19T19:54:33.847Z,2.56
2023-04-19T19:57:56.707Z,2.57
2023-04-19T19:59:52.675Z,2.52
2023-04-19T20:02:22.796Z,2.56
2023-04-19T20:04:50.050Z,2.56
2023-04-19T20:09:46.078Z,2.40
2023-04-19T20:12:13.733Z,2.50
2023-04-19T20:14:40.718Z,2.56
2023-04-19T20:17:07.466Z,2.53
2023-04-19T20:19:34.273Z,2.51
2023-04-19T20:22:00.841Z,2.47
2023-04-19T20:24:27.650Z,2.42
2023-04-19T20:26:54.176Z,2.51
2023-04-19T20:29:20.804Z,2.46
2023-04-19T20:31:47.452Z,2.60
2023-04-19T20:34:13.949Z,2.54
2023-04-19T20:36:40.688Z,2.62
2023-04-19T20:39:09.664Z,2.64
2023-04-19T20:41:36.647Z,2.64
2023-04-19T20:44:04.548Z,2.66
2023-04-19T20:46:31.155Z,2.65
2023-04-19T20:48:57.654Z,2.63
2023-04-19T20:51:24.133Z,2.67
2023-04-19T20:53:50.708Z,2.63
2023-04-19T20:56:17.173Z,2.63
2023-04-19T20:58:43.726Z,2.63
2023-04-19T21:01:11.644Z,2.57
2023-04-19T21:03:38.389Z,2.65
2023-04-19T21:06:05.514Z,2.64
2023-04-19T21:08:31.971Z,2.62
2023-04-19T21:10:58.533Z,2.62
2023-04-19T21:13:25.067Z,2.49
2023-04-19T21:15:51.556Z,2.57
2023-04-19T21:18:18.338Z,2.52
2023-04-19T21:20:44.963Z,2.54
2023-04-19T21:23:11.513Z,2.54
2023-04-19T21:25:37.982Z,2.33
2023-04-19T21:28:04.566Z,2.33
2023-04-19T21:30:31.594Z,2.45
2023-04-19T21:32:58.187Z,2.38
2023-04-19T21:35:24.778Z,2.47
2023-04-19T21:37:51.287Z,2.50
2023-04-19T21:40:17.747Z,2.51
2023-04-19T21:42:44.262Z,2.53
2023-04-19T21:45:18.630Z,2.47
2023-04-19T21:47:45.781Z,2.45
2023-04-19T21:50:12.638Z,2.39
2023-04-19T21:52:39.275Z,2.42
2023-04-19T21:55:06.525Z,2.38
2023-04-19T21:57:32.971Z,2.47
2023-04-19T21:59:59.491Z,2.46
2023-04-19T22:02:26.302Z,2.43
2023-04-19T22:04:53.912Z,2.36
2023-04-19T22:07:20.815Z,2.37
2023-04-19T22:09:47.672Z,2.48
2023-04-19T22:12:14.458Z,2.31
2023-04-19T22:14:41.474Z,2.28
2023-04-19T22:17:09.037Z,2.34
2023-04-19T22:19:35.600Z,2.33
2023-04-19T22:22:02.115Z,2.31
2023-04-19T22:24:28.611Z,2.29
2023-04-19T22:26:55.108Z,2.30
2023-04-19T22:29:21.766Z,2.39
2023-04-19T22:31:48.485Z,2.41
2023-04-19T22:34:14.962Z,2.34
2023-04-19T22:36:41.522Z,2.34
2023-04-19T22:39:09.027Z,2.46
2023-04-19T22:41:35.628Z,2.41
2023-04-19T22:44:02.222Z,2.41
2023-04-19T22:46:28.862Z,2.39
2023-04-19T22:48:58.040Z,2.35
2023-04-19T22:51:24.673Z,2.39
2023-04-19T22:53:51.222Z,2.28
2023-04-19T22:56:17.865Z,2.32
2023-04-19T22:58:44.588Z,2.40
2023-04-19T23:01:11.295Z,2.37
2023-04-19T23:03:37.801Z,2.39
2023-04-19T23:06:04.586Z,2.40
2023-04-19T23:08:31.066Z,2.30
2023-04-19T23:10:57.510Z,2.33
2023-04-19T23:13:23.971Z,2.35
2023-04-19T23:15:50.616Z,2.32
2023-04-19T23:18:17.730Z,2.32
2023-04-19T23:20:44.245Z,2.46
2023-04-19T23:23:11.521Z,2.47
2023-04-19T23:25:38.008Z,2.28
2023-04-19T23:28:04.502Z,2.35
2023-04-19T23:30:32.111Z,2.34
2023-04-19T23:32:58.731Z,2.36
2023-04-19T23:35:25.403Z,2.33
2023-04-19T23:37:51.963Z,2.25
2023-04-19T23:40:18.614Z,2.29
2023-04-19T23:42:45.347Z,2.21
2023-04-19T23:45:12.015Z,2.38
2023-04-19T23:47:38.501Z,2.49
2023-04-19T23:50:05.475Z,2.47
2023-04-19T23:52:31.973Z,2.46
2023-04-19T23:54:58.461Z,2.52
2023-04-19T23:57:24.944Z,2.55
2023-04-19T23:59:51.438Z,2.53
